Time;durP1;ratioP1;P1;durP2;ratioP2;P2;SDS_P1;SDS_P2;PMS_P1;PMS_P2;Temp;Humidity;BMP_temperature;BMP_pressure;BME280_temperature;BME280_humidity;BME280_pressure;Samples;Min_cycle;Max_cycle;Signal;HPM_P1;HPM_P2
2021/05/15 00:00:31;;;;;;;3.72;1.25;;;;;;;;;;5067761;28;20053;-64
2021/05/15 00:02:59;;;;;;;2.78;0.80;;;;;;;;;;5068221;28;20127;-67
2021/05/15 00:05:26;;;;;;;1.98;1.00;;;;;;;;;;5067985;28;20098;-64
2021/05/15 00:07:53;;;;;;;3.72;2.08;;;;;;;;;;5062026;28;20067;-64
2021/05/15 00:10:20;;;;;;;3.35;1.23;;;;;;;;;;5067910;28;20049;-64
2021/05/15 00:12:47;;;;;;;1.65;0.98;;;;;;;;;;5067848;28;20049;-65
2021/05/15 00:15:15;;;;;;;1.98;1.25;;;;;;;;;;5060522;28;20407;-65
2021/05/15 00:17:44;;;;;;;2.72;0.90;;;;;;;;;;5066120;28;20192;-66
2021/05/15 00:20:13;;;;;;;3.75;0.93;;;;;;;;;;5067938;28;20464;-66
2021/05/15 00:22:39;;;;;;;3.50;0.93;;;;;;;;;;5067990;28;20051;-63
2021/05/15 00:25:07;;;;;;;2.85;1.65;;;;;;;;;;5065538;28;20053;-64
2021/05/15 00:27:34;;;;;;;3.80;1.15;;;;;;;;;;5045952;28;20440;-63
2021/05/15 00:30:00;;;;;;;2.15;1.25;;;;;;;;;;5055824;28;20072;-65
2021/05/15 00:32:27;;;;;;;2.00;1.00;;;;;;;;;;5070020;28;20439;-63
2021/05/15 00:34:54;;;;;;;2.47;1.30;;;;;;;;;;5071918;28;20044;-65
2021/05/15 00:37:21;;;;;;;4.43;1.20;;;;;;;;;;5054147;28;20059;-64
2021/05/15 00:39:48;;;;;;;3.58;1.30;;;;;;;;;;5053744;28;20083;-66
2021/05/15 00:42:15;;;;;;;2.22;1.17;;;;;;;;;;5067821;28;20048;-64
2021/05/15 00:44:44;;;;;;;3.97;1.40;;;;;;;;;;5069950;28;20083;-65
2021/05/15 00:47:15;;;;;;;2.88;1.17;;;;;;;;;;5068930;28;20044;-67
2021/05/15 00:49:43;;;;;;;2.10;1.15;;;;;;;;;;5070485;28;20044;-64
2021/05/15 00:52:10;;;;;;;2.05;1.40;;;;;;;;;;5070986;28;20562;-64
2021/05/15 00:54:38;;;;;;;1.67;1.13;;;;;;;;;;5070992;28;20048;-65
2021/05/15 00:57:06;;;;;;;2.78;1.10;;;;;;;;;;5068551;28;20238;-66
2021/05/15 00:59:33;;;;;;;3.78;1.30;;;;;;;;;;5065050;28;20127;-64
2021/05/15 01:02:00;;;;;;;1.80;1.20;;;;;;;;;;5069414;28;20052;-65
2021/05/15 01:04:26;;;;;;;2.17;1.10;;;;;;;;;;5115609;22;20439;-70
2021/05/15 01:06:54;;;;;;;2.13;1.00;;;;;;;;;;5116024;28;20482;-67
2021/05/15 01:09:22;;;;;;;2.72;1.08;;;;;;;;;;5116555;28;20180;-65
2021/05/15 01:11:49;;;;;;;2.90;1.48;;;;;;;;;;5116528;28;20040;-65
2021/05/15 01:14:16;;;;;;;1.23;1.13;;;;;;;;;;5116429;28;20104;-65
2021/05/15 01:16:43;;;;;;;1.58;1.10;;;;;;;;;;5116066;28;20062;-65
2021/05/15 01:19:12;;;;;;;4.50;1.00;;;;;;;;;;5116468;28;20050;-65
2021/05/15 01:21:39;;;;;;;2.05;1.10;;;;;;;;;;5116297;28;20047;-66
2021/05/15 01:24:06;;;;;;;2.58;0.93;;;;;;;;;;5116116;28;20460;-66
2021/05/15 01:26:33;;;;;;;3.03;1.50;;;;;;;;;;5116343;28;20139;-65
2021/05/15 01:29:01;;;;;;;1.13;1.00;;;;;;;;;;5116069;28;20044;-65
2021/05/15 01:31:29;;;;;;;1.48;0.90;;;;;;;;;;5110888;28;20047;-65
2021/05/15 01:33:56;;;;;;;1.60;0.82;;;;;;;;;;5110349;28;20570;-66
2021/05/15 01:36:23;;;;;;;2.58;1.08;;;;;;;;;;5107743;28;20120;-66
2021/05/15 01:38:51;;;;;;;1.33;0.80;;;;;;;;;;5108495;28;20062;-65
2021/05/15 01:41:18;;;;;;;3.25;0.80;;;;;;;;;;5110913;28;20495;-65
2021/05/15 01:43:46;;;;;;;3.85;1.15;;;;;;;;;;5108106;28;20043;-67
2021/05/15 01:46:13;;;;;;;1.15;0.75;;;;;;;;;;5109878;28;20079;-68
2021/05/15 01:48:40;;;;;;;1.65;0.70;;;;;;;;;;5109463;28;20056;-66
2021/05/15 01:51:07;;;;;;;3.30;0.70;;;;;;;;;;5110023;28;20051;-65
2021/05/15 01:53:35;;;;;;;1.08;0.80;;;;;;;;;;5111003;28;20048;-68
2021/05/15 01:56:04;;;;;;;1.15;0.80;;;;;;;;;;5108701;28;20131;-66
2021/05/15 01:58:31;;;;;;;1.33;0.63;;;;;;;;;;5107795;28;20047;-65
2021/05/15 02:00:57;;;;;;;3.90;0.82;;;;;;;;;;5109378;28;20501;-65
2021/05/15 02:03:25;;;;;;;1.83;0.73;;;;;;;;;;5109572;28;20487;-68
2021/05/15 02:05:52;;;;;;;3.00;0.80;;;;;;;;;;5110235;28;20068;-65
2021/05/15 02:08:19;;;;;;;2.55;0.70;;;;;;;;;;5108873;28;20054;-65
2021/05/15 02:10:46;;;;;;;1.42;0.57;;;;;;;;;;5107630;28;20130;-68
2021/05/15 02:13:14;;;;;;;1.42;0.60;;;;;;;;;;5109573;28;20078;-69
2021/05/15 02:15:41;;;;;;;1.92;1.00;;;;;;;;;;5110126;28;20079;-67
2021/05/15 02:18:09;;;;;;;3.63;0.88;;;;;;;;;;5107581;27;20633;-68
2021/05/15 02:20:36;;;;;;;1.45;0.70;;;;;;;;;;5110802;28;20494;-66
2021/05/15 02:23:03;;;;;;;1.38;0.80;;;;;;;;;;5109358;28;20130;-67
2021/05/15 02:25:30;;;;;;;2.05;1.10;;;;;;;;;;5107228;28;20063;-66
2021/05/15 02:27:57;;;;;;;1.00;0.60;;;;;;;;;;5108079;28;20044;-66
2021/05/15 02:30:26;;;;;;;1.75;0.80;;;;;;;;;;5108860;27;20048;-71
2021/05/15 02:32:52;;;;;;;1.75;1.00;;;;;;;;;;5103504;28;20482;-66
2021/05/15 02:35:19;;;;;;;2.33;0.80;;;;;;;;;;5109904;28;20160;-66
2021/05/15 02:37:47;;;;;;;1.55;0.70;;;;;;;;;;5103487;28;20138;-66
2021/05/15 02:40:14;;;;;;;3.35;0.80;;;;;;;;;;5106997;28;20124;-68
2021/05/15 02:42:41;;;;;;;1.25;0.80;;;;;;;;;;5109257;28;20166;-66
2021/05/15 02:45:09;;;;;;;3.08;0.95;;;;;;;;;;5109850;28;20509;-66
2021/05/15 02:47:37;;;;;;;1.40;0.88;;;;;;;;;;5109641;28;20487;-70
2021/05/15 02:50:04;;;;;;;2.22;0.75;;;;;;;;;;5109401;28;20601;-65
2021/05/15 02:52:31;;;;;;;3.33;0.73;;;;;;;;;;5108831;28;20062;-65
2021/05/15 02:54:58;;;;;;;1.58;0.80;;;;;;;;;;5108641;28;20060;-66
2021/05/15 02:57:25;;;;;;;0.98;0.70;;;;;;;;;;5106852;28;20067;-66
2021/05/15 02:59:51;;;;;;;2.10;0.70;;;;;;;;;;5105061;28;20092;-66
2021/05/15 03:02:18;;;;;;;1.38;0.63;;;;;;;;;;5107905;28;20044;-66
2021/05/15 03:04:46;;;;;;;0.98;0.70;;;;;;;;;;5109005;28;20754;-69
2021/05/15 03:07:12;;;;;;;1.08;0.50;;;;;;;;;;5107817;28;20096;-66
2021/05/15 03:09:39;;;;;;;1.60;0.93;;;;;;;;;;5108172;28;20043;-70
2021/05/15 03:12:06;;;;;;;1.27;0.80;;;;;;;;;;5108455;28;20104;-69
2021/05/15 03:14:33;;;;;;;2.95;1.10;;;;;;;;;;5108196;28;20043;-69
2021/05/15 03:17:00;;;;;;;0.93;0.70;;;;;;;;;;5105290;28;20108;-68
2021/05/15 03:19:26;;;;;;;4.45;0.90;;;;;;;;;;5107673;28;20039;-66
2021/05/15 03:21:54;;;;;;;3.33;0.90;;;;;;;;;;5109966;28;20048;-66
2021/05/15 03:24:21;;;;;;;1.25;0.80;;;;;;;;;;5108789;28;20176;-69
2021/05/15 03:26:47;;;;;;;2.97;0.73;;;;;;;;;;5108078;28;20036;-66
2021/05/15 03:29:14;;;;;;;2.15;0.80;;;;;;;;;;5108335;28;20048;-68
2021/05/15 03:31:41;;;;;;;2.63;0.90;;;;;;;;;;5107940;28;20062;-65
2021/05/15 03:34:08;;;;;;;1.33;0.80;;;;;;;;;;5105503;28;20058;-65
2021/05/15 03:36:35;;;;;;;1.83;0.85;;;;;;;;;;5104166;28;20074;-65
2021/05/15 03:39:02;;;;;;;1.17;0.73;;;;;;;;;;5108234;28;20079;-69
2021/05/15 03:41:29;;;;;;;1.42;0.80;;;;;;;;;;5107774;28;20491;-70
2021/05/15 03:43:56;;;;;;;3.72;0.80;;;;;;;;;;5108774;28;20055;-68
2021/05/15 03:46:23;;;;;;;2.72;0.80;;;;;;;;;;5108552;28;20101;-66
2021/05/15 03:48:50;;;;;;;3.22;0.70;;;;;;;;;;5108495;28;20101;-66
2021/05/15 03:51:17;;;;;;;3.65;1.00;;;;;;;;;;5104234;28;20043;-70
2021/05/15 03:53:43;;;;;;;2.70;0.98;;;;;;;;;;5106646;28;20354;-65
2021/05/15 03:56:11;;;;;;;3.22;1.02;;;;;;;;;;5108313;28;20051;-68
2021/05/15 03:58:38;;;;;;;4.07;0.80;;;;;;;;;;5107443;28;20581;-65
2021/05/15 04:01:05;;;;;;;3.15;1.00;;;;;;;;;;5106912;28;20103;-71
2021/05/15 04:03:31;;;;;;;1.30;0.73;;;;;;;;;;5107508;28;20048;-65
2021/05/15 04:05:58;;;;;;;1.88;0.90;;;;;;;;;;5108664;28;20105;-67
2021/05/15 04:08:25;;;;;;;3.20;1.00;;;;;;;;;;5108410;28;20047;-66
2021/05/15 04:10:51;;;;;;;2.40;0.63;;;;;;;;;;5111910;28;20063;-68
2021/05/15 04:13:26;;;;;;;1.67;0.80;;;;;;;;;;5111924;27;20051;-65
2021/05/15 04:15:57;;;;;;;2.15;0.82;;;;;;;;;;5112692;28;20109;-67
2021/05/15 04:18:27;;;;;;;4.03;0.80;;;;;;;;;;5111120;28;20047;-69
2021/05/15 04:20:54;;;;;;;1.02;0.82;;;;;;;;;;5112486;27;20089;-72
2021/05/15 04:23:21;;;;;;;2.42;0.90;;;;;;;;;;5109874;28;20051;-67
2021/05/15 04:25:48;;;;;;;2.15;0.90;;;;;;;;;;5112017;28;20053;-67
2021/05/15 04:28:15;;;;;;;1.30;0.70;;;;;;;;;;5112464;28;20043;-66
2021/05/15 04:30:43;;;;;;;1.77;0.80;;;;;;;;;;5110006;28;20047;-67
2021/05/15 04:33:10;;;;;;;0.88;0.63;;;;;;;;;;5112331;28;20052;-66
2021/05/15 04:35:36;;;;;;;1.50;0.85;;;;;;;;;;5111985;28;20051;-70
2021/05/15 04:38:04;;;;;;;0.80;0.65;;;;;;;;;;5106613;28;20078;-66
2021/05/15 04:40:30;;;;;;;1.38;0.80;;;;;;;;;;5109128;28;20078;-69
2021/05/15 04:42:57;;;;;;;1.65;0.90;;;;;;;;;;5110486;28;20051;-65
2021/05/15 04:45:26;;;;;;;0.73;0.73;;;;;;;;;;5112227;28;20044;-69
2021/05/15 04:47:54;;;;;;;2.80;0.70;;;;;;;;;;5110304;28;20043;-65
2021/05/15 04:50:21;;;;;;;1.77;0.90;;;;;;;;;;5109724;28;20047;-66
2021/05/15 04:52:47;;;;;;;2.47;0.90;;;;;;;;;;5111012;28;20044;-66
2021/05/15 04:55:14;;;;;;;1.83;1.10;;;;;;;;;;5109532;28;20059;-65
2021/05/15 04:57:41;;;;;;;6.30;0.80;;;;;;;;;;5111089;28;20059;-66
2021/05/15 05:00:08;;;;;;;1.17;0.80;;;;;;;;;;5110310;28;20043;-67
2021/05/15 05:02:35;;;;;;;1.35;0.75;;;;;;;;;;5110543;28;20395;-70
2021/05/15 05:05:02;;;;;;;1.88;0.70;;;;;;;;;;5110992;28;20079;-66
2021/05/15 05:07:29;;;;;;;3.85;0.90;;;;;;;;;;5110284;28;20475;-68
2021/05/15 05:09:56;;;;;;;0.65;0.50;;;;;;;;;;5111557;28;20130;-66
2021/05/15 05:12:23;;;;;;;3.53;0.70;;;;;;;;;;5108555;28;20418;-67
2021/05/15 05:14:49;;;;;;;0.90;0.70;;;;;;;;;;5111158;27;20562;-69
2021/05/15 05:17:16;;;;;;;2.65;0.93;;;;;;;;;;5108830;28;20316;-66
2021/05/15 05:19:43;;;;;;;0.98;0.60;;;;;;;;;;5110463;28;20054;-66
2021/05/15 05:22:10;;;;;;;1.17;0.70;;;;;;;;;;5111454;28;20386;-66
2021/05/15 05:24:39;;;;;;;4.63;1.00;;;;;;;;;;5111700;28;20050;-70
2021/05/15 05:27:08;;;;;;;3.28;1.05;;;;;;;;;;5110383;28;20075;-68
2021/05/15 05:29:35;;;;;;;3.10;0.93;;;;;;;;;;5110391;28;20065;-67
2021/05/15 05:32:02;;;;;;;1.23;0.90;;;;;;;;;;5107285;28;20093;-65
2021/05/15 05:34:31;;;;;;;0.70;0.60;;;;;;;;;;5111251;28;20043;-70
2021/05/15 05:36:58;;;;;;;1.10;0.70;;;;;;;;;;5104003;28;20077;-66
2021/05/15 05:39:26;;;;;;;4.85;0.90;;;;;;;;;;5109768;28;20473;-72
2021/05/15 05:41:53;;;;;;;2.55;0.90;;;;;;;;;;5109441;28;20586;-65
2021/05/15 05:44:19;;;;;;;2.05;0.95;;;;;;;;;;5106354;28;20051;-66
2021/05/15 05:46:46;;;;;;;0.77;0.63;;;;;;;;;;5104405;28;20070;-66
2021/05/15 05:49:13;;;;;;;1.92;0.75;;;;;;;;;;5106275;28;20043;-68
2021/05/15 05:51:39;;;;;;;2.05;1.10;;;;;;;;;;5105588;28;20043;-69
2021/05/15 05:54:06;;;;;;;2.20;1.00;;;;;;;;;;5107804;28;20079;-69
2021/05/15 05:56:34;;;;;;;0.70;0.60;;;;;;;;;;5105954;28;20487;-67
2021/05/15 05:59:01;;;;;;;1.65;0.80;;;;;;;;;;5105805;28;20143;-67
2021/05/15 06:01:28;;;;;;;1.35;0.60;;;;;;;;;;5105766;27;20380;-72
2021/05/15 06:03:55;;;;;;;0.95;0.65;;;;;;;;;;5107088;28;20139;-69
2021/05/15 06:06:21;;;;;;;2.05;0.90;;;;;;;;;;5105268;28;20047;-70
2021/05/15 06:08:48;;;;;;;1.40;0.68;;;;;;;;;;5104153;28;20586;-69
2021/05/15 06:11:15;;;;;;;2.20;0.68;;;;;;;;;;5106465;28;20096;-69
2021/05/15 06:13:42;;;;;;;1.75;0.98;;;;;;;;;;5086752;28;20048;-68
2021/05/15 06:16:09;;;;;;;1.33;0.75;;;;;;;;;;5106000;28;20047;-66
2021/05/15 06:18:36;;;;;;;1.73;0.70;;;;;;;;;;5104241;28;20056;-66
2021/05/15 06:21:02;;;;;;;2.22;0.70;;;;;;;;;;5106653;28;20044;-66
2021/05/15 06:23:29;;;;;;;2.83;0.73;;;;;;;;;;5105511;28;20058;-69
2021/05/15 06:25:56;;;;;;;3.38;0.60;;;;;;;;;;5106539;28;20047;-69
2021/05/15 06:28:23;;;;;;;1.67;0.80;;;;;;;;;;5105857;28;20501;-68
2021/05/15 06:30:50;;;;;;;2.50;0.93;;;;;;;;;;5106601;28;20071;-68
2021/05/15 06:33:17;;;;;;;1.02;0.70;;;;;;;;;;5104747;28;20059;-69
2021/05/15 06:35:43;;;;;;;2.20;1.42;;;;;;;;;;5099339;28;20040;-68
2021/05/15 06:38:10;;;;;;;1.98;0.60;;;;;;;;;;5084425;28;20149;-69
2021/05/15 06:40:37;;;;;;;1.67;0.80;;;;;;;;;;5105290;28;20060;-70
2021/05/15 06:43:04;;;;;;;2.60;1.20;;;;;;;;;;5104190;28;20130;-69
2021/05/15 06:45:31;;;;;;;1.48;0.70;;;;;;;;;;5105813;28;20483;-68
2021/05/15 06:47:58;;;;;;;1.42;0.70;;;;;;;;;;5100808;28;20039;-70
2021/05/15 06:50:25;;;;;;;1.40;0.70;;;;;;;;;;5104497;28;20044;-68
2021/05/15 06:52:52;;;;;;;2.28;0.60;;;;;;;;;;5104677;28;20102;-67
2021/05/15 06:55:19;;;;;;;2.13;0.70;;;;;;;;;;5103868;27;20043;-68
2021/05/15 06:57:45;;;;;;;2.90;0.70;;;;;;;;;;5104269;28;20120;-68
2021/05/15 07:00:13;;;;;;;2.10;0.80;;;;;;;;;;5105060;28;20139;-70
2021/05/15 07:02:39;;;;;;;1.13;0.65;;;;;;;;;;5102362;28;20056;-70
2021/05/15 07:05:07;;;;;;;2.15;0.82;;;;;;;;;;5104240;28;20086;-68
2021/05/15 07:07:34;;;;;;;3.08;0.95;;;;;;;;;;5102807;28;20048;-68
2021/05/15 07:10:01;;;;;;;1.33;0.77;;;;;;;;;;5105112;28;20055;-70
2021/05/15 07:12:27;;;;;;;1.20;0.57;;;;;;;;;;5105589;28;20055;-67
2021/05/15 07:14:54;;;;;;;0.95;0.60;;;;;;;;;;5103324;28;20047;-73
2021/05/15 07:17:25;;;;;;;2.40;0.70;;;;;;;;;;5101086;28;20060;-72
2021/05/15 07:19:52;;;;;;;2.65;0.70;;;;;;;;;;5104738;28;20052;-67
2021/05/15 07:22:22;;;;;;;1.63;0.77;;;;;;;;;;5105561;28;20079;-68
2021/05/15 07:24:49;;;;;;;2.17;0.90;;;;;;;;;;5103171;28;20158;-69
2021/05/15 07:27:16;;;;;;;1.92;0.80;;;;;;;;;;5102942;28;20062;-70
2021/05/15 07:29:43;;;;;;;2.83;0.90;;;;;;;;;;5103140;28;20126;-70
2021/05/15 07:32:10;;;;;;;1.55;0.60;;;;;;;;;;5101126;28;20692;-74
2021/05/15 07:34:37;;;;;;;1.35;0.70;;;;;;;;;;5106156;28;20043;-66
2021/05/15 07:37:04;;;;;;;1.38;0.77;;;;;;;;;;5105185;28;20135;-68
2021/05/15 07:39:32;;;;;;;2.45;0.65;;;;;;;;;;5105985;28;20052;-68
2021/05/15 07:41:58;;;;;;;2.00;0.70;;;;;;;;;;5107489;28;20098;-68
2021/05/15 07:44:25;;;;;;;1.48;0.60;;;;;;;;;;5106754;28;20048;-66
2021/05/15 07:46:52;;;;;;;1.00;0.65;;;;;;;;;;5106155;28;20050;-65
2021/05/15 07:49:19;;;;;;;1.77;0.50;;;;;;;;;;5103277;28;20043;-67
2021/05/15 07:51:45;;;;;;;1.27;0.50;;;;;;;;;;5107602;28;20487;-68
2021/05/15 07:54:12;;;;;;;1.88;0.65;;;;;;;;;;5107272;28;20375;-65
2021/05/15 07:56:40;;;;;;;2.28;0.80;;;;;;;;;;5107149;28;20052;-66
2021/05/15 07:59:07;;;;;;;3.42;0.90;;;;;;;;;;5106188;28;20058;-65
2021/05/15 08:01:34;;;;;;;2.58;1.23;;;;;;;;;;5108654;28;20398;-65
2021/05/15 08:04:00;;;;;;;0.90;0.57;;;;;;;;;;5103667;28;20110;-70
2021/05/15 08:06:27;;;;;;;2.90;0.70;;;;;;;;;;5106215;28;20075;-66
2021/05/15 08:08:54;;;;;;;1.23;0.40;;;;;;;;;;5106588;28;20051;-65
2021/05/15 08:11:20;;;;;;;1.35;0.70;;;;;;;;;;5107453;28;20048;-65
2021/05/15 08:13:48;;;;;;;1.27;0.60;;;;;;;;;;5106320;28;20043;-66
2021/05/15 08:16:16;;;;;;;1.88;0.70;;;;;;;;;;5104113;28;20055;-66
2021/05/15 08:18:43;;;;;;;1.85;0.70;;;;;;;;;;5104266;28;20176;-69
2021/05/15 08:21:10;;;;;;;1.70;0.70;;;;;;;;;;5107637;28;20054;-67
2021/05/15 08:23:38;;;;;;;3.05;0.60;;;;;;;;;;5106278;28;20525;-69
2021/05/15 08:26:05;;;;;;;2.78;0.60;;;;;;;;;;5102051;28;20139;-71
2021/05/15 08:28:32;;;;;;;0.63;0.60;;;;;;;;;;5104596;28;20056;-71
2021/05/15 08:31:00;;;;;;;1.60;0.60;;;;;;;;;;5106801;28;20101;-71
2021/05/15 08:33:27;;;;;;;2.00;0.50;;;;;;;;;;5100253;28;20118;-72
2021/05/15 08:35:53;;;;;;;2.22;0.60;;;;;;;;;;5103257;28;20476;-68
2021/05/15 08:38:20;;;;;;;1.15;0.55;;;;;;;;;;5106073;28;20108;-68
2021/05/15 08:40:47;;;;;;;2.85;0.40;;;;;;;;;;5103323;28;20383;-70
2021/05/15 08:43:15;;;;;;;4.90;0.70;;;;;;;;;;5105616;28;20449;-68
2021/05/15 08:45:42;;;;;;;1.98;0.50;;;;;;;;;;5101249;28;20396;-75
2021/05/15 08:48:12;;;;;;;5.10;0.70;;;;;;;;;;5105483;28;20044;-70
2021/05/15 08:50:39;;;;;;;1.45;0.47;;;;;;;;;;5105221;28;20066;-69
2021/05/15 08:53:06;;;;;;;0.60;0.32;;;;;;;;;;5108231;28;20083;-68
2021/05/15 08:55:34;;;;;;;1.02;0.50;;;;;;;;;;5110468;27;20086;-68
2021/05/15 08:58:01;;;;;;;1.02;0.50;;;;;;;;;;5109604;28;20438;-71
2021/05/15 09:00:30;;;;;;;1.42;0.38;;;;;;;;;;5106888;28;20047;-68
2021/05/15 09:02:58;;;;;;;2.55;0.50;;;;;;;;;;5109626;28;20083;-69
2021/05/15 09:05:27;;;;;;;34.00;1.92;;;;;;;;;;5105099;28;20047;-68
2021/05/15 09:07:56;;;;;;;0.75;0.40;;;;;;;;;;5108725;28;20100;-74
2021/05/15 09:10:26;;;;;;;1.33;0.43;;;;;;;;;;5106737;28;20409;-69
2021/05/15 09:13:08;;;;;;;1.00;0.52;;;;;;;;;;5104379;28;20048;-70
2021/05/15 09:15:36;;;;;;;1.17;0.60;;;;;;;;;;5108519;28;20094;-70
2021/05/15 09:18:05;;;;;;;1.90;0.60;;;;;;;;;;5108426;28;20100;-71
2021/05/15 09:20:34;;;;;;;5.07;0.93;;;;;;;;;;5106757;28;20487;-68
2021/05/15 09:23:16;;;;;;;0.30;0.30;;;;;;;;;;5110492;28;20074;-75
2021/05/15 09:25:44;;;;;;;1.10;0.40;;;;;;;;;;5105467;28;20755;-69
2021/05/15 09:28:13;;;;;;;0.52;0.40;;;;;;;;;;5109405;28;20073;-74
2021/05/15 09:30:42;;;;;;;1.00;0.50;;;;;;;;;;5110394;28;20044;-68
2021/05/15 09:33:18;;;;;;;1.85;0.45;;;;;;;;;;5111052;28;20089;-67
2021/05/15 09:35:55;;;;;;;0.47;0.32;;;;;;;;;;5108806;27;20516;-68
2021/05/15 09:38:27;;;;;;;1.63;0.40;;;;;;;;;;5107344;28;20047;-68
2021/05/15 09:40:56;;;;;;;1.35;0.40;;;;;;;;;;5109748;28;20051;-71
2021/05/15 09:43:24;;;;;;;1.08;0.60;;;;;;;;;;5102812;28;20122;-72
2021/05/15 09:45:52;;;;;;;3.63;0.50;;;;;;;;;;5107420;28;20120;-67
2021/05/15 09:51:12;;;;;;;0.98;0.40;;;;;;;;;;5108750;28;20071;-68
2021/05/15 09:53:41;;;;;;;3.25;0.60;;;;;;;;;;5109542;28;20054;-67
2021/05/15 09:56:09;;;;;;;0.77;0.45;;;;;;;;;;5108164;28;20050;-68
2021/05/15 09:58:37;;;;;;;1.63;0.50;;;;;;;;;;5109544;28;20436;-71
2021/05/15 10:01:06;;;;;;;0.63;0.40;;;;;;;;;;5108032;28;20040;-72
2021/05/15 10:03:35;;;;;;;0.93;0.43;;;;;;;;;;5107914;28;20558;-69
2021/05/15 10:06:06;;;;;;;0.88;0.38;;;;;;;;;;5109341;28;20061;-69
2021/05/15 10:08:36;;;;;;;1.83;0.47;;;;;;;;;;5107843;28;20476;-69
2021/05/15 10:11:04;;;;;;;0.73;0.30;;;;;;;;;;5110344;28;20067;-70
2021/05/15 10:13:34;;;;;;;1.10;0.52;;;;;;;;;;5106506;28;20079;-76
2021/05/15 10:16:02;;;;;;;0.77;0.50;;;;;;;;;;5109446;28;20059;-68
2021/05/15 10:18:30;;;;;;;0.82;0.50;;;;;;;;;;5108128;28;20062;-68
2021/05/15 10:21:00;;;;;;;1.67;0.50;;;;;;;;;;5109026;28;20040;-67
2021/05/15 10:23:30;;;;;;;1.95;0.40;;;;;;;;;;5111920;27;20109;-68
2021/05/15 10:26:09;;;;;;;0.82;0.40;;;;;;;;;;5111400;28;20055;-68
2021/05/15 10:28:45;;;;;;;2.13;0.50;;;;;;;;;;5103505;27;20054;-67
2021/05/15 10:31:21;;;;;;;1.90;0.57;;;;;;;;;;5091179;28;20079;-67
2021/05/15 10:34:03;;;;;;;2.40;0.70;;;;;;;;;;5093571;28;20054;-66
2021/05/15 10:36:44;;;;;;;0.73;0.52;;;;;;;;;;5097690;28;20043;-70
2021/05/15 10:39:12;;;;;;;0.80;0.40;;;;;;;;;;5100817;28;20051;-75
2021/05/15 10:41:47;;;;;;;1.65;0.50;;;;;;;;;;5107434;28;20051;-67
2021/05/15 10:44:15;;;;;;;2.10;0.70;;;;;;;;;;5110447;28;20039;-68
2021/05/15 10:46:47;;;;;;;1.30;0.50;;;;;;;;;;5102374;28;20449;-68
2021/05/15 10:49:20;;;;;;;3.95;0.73;;;;;;;;;;5109708;28;20120;-65
2021/05/15 10:51:49;;;;;;;1.42;0.50;;;;;;;;;;5107375;28;20047;-66
2021/05/15 10:54:17;;;;;;;1.10;0.50;;;;;;;;;;5109879;28;20472;-66
2021/05/15 10:57:01;;;;;;;2.08;0.50;;;;;;;;;;5102365;28;20048;-69
2021/05/15 10:59:29;;;;;;;2.10;0.55;;;;;;;;;;5097511;28;20047;-65
2021/05/15 11:01:59;;;;;;;1.33;0.40;;;;;;;;;;5103210;28;20452;-66
2021/05/15 11:04:29;;;;;;;0.55;0.35;;;;;;;;;;5104414;28;20050;-66
2021/05/15 11:07:05;;;;;;;1.70;0.50;;;;;;;;;;5103816;28;20116;-66
2021/05/15 11:09:37;;;;;;;2.22;0.63;;;;;;;;;;5105269;28;20058;-66
2021/05/15 11:12:11;;;;;;;2.58;0.60;;;;;;;;;;5101046;28;20051;-66
2021/05/15 11:14:40;;;;;;;1.63;0.50;;;;;;;;;;5093458;28;20154;-66
2021/05/15 11:17:15;;;;;;;1.30;0.82;;;;;;;;;;5102133;28;20564;-67
2021/05/15 11:19:50;;;;;;;0.55;0.40;;;;;;;;;;5102105;28;21066;-66
2021/05/15 11:22:18;;;;;;;1.38;0.50;;;;;;;;;;5102852;28;20047;-65
2021/05/15 11:24:53;;;;;;;0.60;0.50;;;;;;;;;;5104164;28;20047;-67
2021/05/15 11:27:23;;;;;;;1.35;0.70;;;;;;;;;;5101836;28;20047;-69
2021/05/15 11:30:06;;;;;;;0.70;0.40;;;;;;;;;;5089060;28;20051;-67
2021/05/15 11:32:35;;;;;;;1.15;0.60;;;;;;;;;;5102313;28;20058;-66
2021/05/15 11:35:04;;;;;;;5.22;0.60;;;;;;;;;;5101048;28;20073;-69
2021/05/15 11:37:32;;;;;;;1.02;0.60;;;;;;;;;;5099895;28;20083;-66
2021/05/15 11:40:00;;;;;;;3.05;0.50;;;;;;;;;;5102263;28;20048;-66
2021/05/15 11:42:29;;;;;;;1.02;0.50;;;;;;;;;;5104685;28;20043;-65
2021/05/15 11:44:58;;;;;;;0.73;0.32;;;;;;;;;;5102987;28;20050;-65
2021/05/15 11:47:26;;;;;;;0.82;0.40;;;;;;;;;;5103629;28;20128;-69
2021/05/15 11:49:58;;;;;;;1.60;0.57;;;;;;;;;;5103792;28;20586;-70
2021/05/15 11:52:29;;;;;;;0.50;0.43;;;;;;;;;;5088580;28;20062;-68
2021/05/15 11:54:58;;;;;;;1.60;0.50;;;;;;;;;;5094304;28;20369;-66
2021/05/15 11:57:26;;;;;;;2.03;0.47;;;;;;;;;;5098094;28;20047;-69
2021/05/15 12:00:07;;;;;;;1.52;0.45;;;;;;;;;;5098957;28;20044;-66
2021/05/15 12:02:35;;;;;;;0.73;0.40;;;;;;;;;;5102384;28;20048;-68
2021/05/15 12:05:13;;;;;;;3.70;0.40;;;;;;;;;;5104867;28;20056;-68
2021/05/15 12:07:45;;;;;;;1.05;0.60;;;;;;;;;;5091454;28;20058;-67
2021/05/15 12:10:16;;;;;;;2.35;0.60;;;;;;;;;;5084478;28;20056;-66
2021/05/15 12:12:53;;;;;;;1.30;0.57;;;;;;;;;;5086326;28;20075;-65
2021/05/15 12:15:23;;;;;;;0.95;0.50;;;;;;;;;;5085418;28;20256;-65
2021/05/15 12:17:51;;;;;;;3.22;0.70;;;;;;;;;;5088007;28;20515;-66
2021/05/15 12:20:32;;;;;;;0.90;0.70;;;;;;;;;;5085456;28;20339;-66
2021/05/15 12:23:08;;;;;;;1.25;0.60;;;;;;;;;;5090088;28;20051;-65
2021/05/15 12:25:36;;;;;;;3.03;0.60;;;;;;;;;;5094132;28;20048;-70
2021/05/15 12:28:04;;;;;;;0.77;0.40;;;;;;;;;;5103804;28;20071;-67
2021/05/15 12:30:37;;;;;;;3.00;0.52;;;;;;;;;;5110137;28;20424;-65
2021/05/15 12:33:06;;;;;;;1.25;0.60;;;;;;;;;;5111284;28;20138;-69
2021/05/15 12:35:34;;;;;;;1.63;0.57;;;;;;;;;;5110941;27;20093;-65
2021/05/15 12:38:07;;;;;;;2.05;0.70;;;;;;;;;;5084368;28;20059;-64
2021/05/15 12:40:52;;;;;;;2.98;0.50;;;;;;;;;;2250861;28;10023748;-65
2021/05/15 12:43:25;;;;;;;5.13;0.60;;;;;;;;;;3642759;28;10002587;-67
2021/05/15 12:45:55;;;;;;;0.63;0.50;;;;;;;;;;5047031;28;20049;-65
2021/05/15 12:48:36;;;;;;;2.08;0.55;;;;;;;;;;5050558;28;20048;-66
2021/05/15 12:51:05;;;;;;;6.00;0.70;;;;;;;;;;5049984;28;20570;-65
2021/05/15 12:53:33;;;;;;;1.92;0.60;;;;;;;;;;5049602;28;20049;-65
2021/05/15 12:56:01;;;;;;;2.30;0.50;;;;;;;;;;5047950;28;20045;-64
2021/05/15 12:58:29;;;;;;;0.85;0.50;;;;;;;;;;5049703;28;20053;-65
2021/05/15 13:00:59;;;;;;;10.65;0.82;;;;;;;;;;5049437;28;20053;-68
2021/05/15 13:03:28;;;;;;;1.27;0.50;;;;;;;;;;5050335;28;20052;-67
2021/05/15 13:05:56;;;;;;;0.65;0.60;;;;;;;;;;5049790;28;20045;-68
2021/05/15 13:08:31;;;;;;;2.38;0.55;;;;;;;;;;5047952;28;20091;-65
2021/05/15 13:11:09;;;;;;;2.38;0.43;;;;;;;;;;5046597;28;20044;-65
2021/05/15 13:13:37;;;;;;;2.63;0.70;;;;;;;;;;5050465;28;20106;-65
2021/05/15 13:16:06;;;;;;;2.50;0.47;;;;;;;;;;5049669;28;20044;-68
2021/05/15 13:18:35;;;;;;;1.30;0.52;;;;;;;;;;5049683;28;20095;-65
2021/05/15 13:21:04;;;;;;;2.67;0.52;;;;;;;;;;5050255;28;20049;-65
2021/05/15 13:23:33;;;;;;;1.65;0.60;;;;;;;;;;5050038;28;20049;-69
2021/05/15 13:26:01;;;;;;;0.70;0.40;;;;;;;;;;5050195;28;20052;-66
2021/05/15 13:28:29;;;;;;;2.28;0.55;;;;;;;;;;5045101;28;20075;-67
2021/05/15 13:30:59;;;;;;;0.65;0.32;;;;;;;;;;5048597;28;20175;-67
2021/05/15 13:33:28;;;;;;;1.98;0.60;;;;;;;;;;5051601;28;20045;-66
2021/05/15 13:35:56;;;;;;;4.10;0.60;;;;;;;;;;5049439;28;20041;-70
2021/05/15 13:38:24;;;;;;;1.10;0.47;;;;;;;;;;5048265;28;20416;-67
2021/05/15 13:40:52;;;;;;;1.35;0.60;;;;;;;;;;5047147;28;20106;-71
2021/05/15 13:43:20;;;;;;;1.83;0.57;;;;;;;;;;5049318;28;20079;-65
2021/05/15 13:45:48;;;;;;;2.90;0.50;;;;;;;;;;5046680;28;20057;-66
2021/05/15 13:48:30;;;;;;;1.08;0.30;;;;;;;;;;5048285;28;20057;-66
2021/05/15 13:50:59;;;;;;;0.80;0.43;;;;;;;;;;5047162;28;20131;-66
2021/05/15 13:53:32;;;;;;;1.70;0.60;;;;;;;;;;5049533;28;20047;-71
2021/05/15 13:56:00;;;;;;;1.35;0.57;;;;;;;;;;5049202;28;20221;-65
2021/05/15 13:58:27;;;;;;;0.77;0.43;;;;;;;;;;5048850;28;20142;-66
2021/05/15 14:00:55;;;;;;;0.40;0.40;;;;;;;;;;5048750;28;20060;-66
2021/05/15 14:03:23;;;;;;;2.50;0.47;;;;;;;;;;5049731;28;20496;-66
2021/05/15 14:05:51;;;;;;;0.60;0.47;;;;;;;;;;5047392;28;20052;-66
2021/05/15 14:08:20;;;;;;;1.58;0.50;;;;;;;;;;5048042;28;20102;-68
2021/05/15 14:10:48;;;;;;;0.85;0.57;;;;;;;;;;5041334;28;20381;-65
2021/05/15 14:13:17;;;;;;;1.17;0.68;;;;;;;;;;5049732;28;20524;-65
2021/05/15 14:15:45;;;;;;;1.10;0.73;;;;;;;;;;5049622;28;20451;-67
2021/05/15 14:18:13;;;;;;;1.38;0.63;;;;;;;;;;5048773;28;20060;-68
2021/05/15 14:20:41;;;;;;;2.30;0.57;;;;;;;;;;5048796;28;20460;-66
2021/05/15 14:23:09;;;;;;;1.70;0.68;;;;;;;;;;5049348;28;20049;-68
2021/05/15 14:25:39;;;;;;;0.68;0.40;;;;;;;;;;5047568;28;20045;-66
2021/05/15 14:28:09;;;;;;;1.27;0.40;;;;;;;;;;5047546;28;20583;-70
2021/05/15 14:30:37;;;;;;;1.30;0.28;;;;;;;;;;5046459;28;20080;-67
2021/05/15 14:33:06;;;;;;;1.50;0.40;;;;;;;;;;5048916;28;20051;-65
2021/05/15 14:35:35;;;;;;;1.73;0.30;;;;;;;;;;5048683;28;20053;-69
2021/05/15 14:38:04;;;;;;;1.08;0.50;;;;;;;;;;5045834;28;20124;-65
2021/05/15 14:40:32;;;;;;;2.17;0.40;;;;;;;;;;5047979;28;20135;-68
2021/05/15 14:43:01;;;;;;;2.90;0.50;;;;;;;;;;5047722;28;20126;-65
2021/05/15 14:45:29;;;;;;;0.77;0.50;;;;;;;;;;5048799;28;20118;-71
2021/05/15 14:47:57;;;;;;;0.88;0.40;;;;;;;;;;5044539;28;20499;-66
2021/05/15 14:50:26;;;;;;;1.15;0.30;;;;;;;;;;5049015;28;20052;-68
2021/05/15 14:52:54;;;;;;;1.50;0.40;;;;;;;;;;5047840;28;20041;-66